GEOFB FQNC-FWCL
Flight info
| Callsign | GEOFB |
|---|---|
| Flight time | N/A |
| Altitude | 14000 |
| Route | IBNET1D OKBOB T547 VNP/N0518F400 DCT EPNOM |
| Aircraft | C750/M-SBDE3FGHRWXY/S |
Departure
| Time | N/A |
|---|---|
| Airport | Nacala International Airport (FQNC) |
Arrival
| Time | 2026-05-06 17:28 |
|---|---|
| Airport | Chileka International Airport (FWCL) |
| Time | Latitude | Longitude | Altitude | Speed | Heading |
|---|---|---|---|---|---|
| 2026-05-06 17:00 | -14.59297 | 40.37872 | 14585 ft | 383 kts | 242° |
| 2026-05-06 17:00 | -14.60538 | 40.35415 | 15222 ft | 388 kts | 242° |
| 2026-05-06 17:01 | -14.61792 | 40.32929 | 15862 ft | 393 kts | 242° |
| 2026-05-06 17:01 | -14.63058 | 40.30415 | 16520 ft | 398 kts | 242° |
| 2026-05-06 17:01 | -14.64343 | 40.27867 | 17186 ft | 402 kts | 242° |
| 2026-05-06 17:01 | -14.65645 | 40.25286 | 17849 ft | 408 kts | 243° |
| 2026-05-06 17:02 | -14.66957 | 40.22682 | 18530 ft | 412 kts | 243° |
| 2026-05-06 17:02 | -14.68288 | 40.20037 | 19247 ft | 416 kts | 243° |
| 2026-05-06 17:02 | -14.69628 | 40.17375 | 19989 ft | 419 kts | 243° |
| 2026-05-06 17:02 | -14.70958 | 40.14733 | 20678 ft | 423 kts | 243° |
| 2026-05-06 17:03 | -14.72322 | 40.12024 | 21382 ft | 426 kts | 243° |
| 2026-05-06 17:03 | -14.73691 | 40.09298 | 22085 ft | 429 kts | 243° |
| 2026-05-06 17:03 | -14.74936 | 40.06482 | 22705 ft | 433 kts | 246° |
| 2026-05-06 17:03 | -14.76205 | 40.03653 | 23393 ft | 436 kts | 244° |
| 2026-05-06 17:04 | -14.77515 | 40.00824 | 24020 ft | 439 kts | 245° |
| 2026-05-06 17:04 | -14.78797 | 39.97943 | 24630 ft | 443 kts | 245° |
| 2026-05-06 17:04 | -14.80064 | 39.95023 | 25212 ft | 447 kts | 246° |
| 2026-05-06 17:04 | -14.81364 | 39.92087 | 25793 ft | 452 kts | 245° |
| 2026-05-06 17:05 | -14.82697 | 39.89130 | 26377 ft | 455 kts | 245° |
| 2026-05-06 17:05 | -14.84008 | 39.86191 | 27000 ft | 457 kts | 246° |
| 2026-05-06 17:05 | -14.85326 | 39.83199 | 27660 ft | 459 kts | 246° |
| 2026-05-06 17:05 | -14.86653 | 39.80195 | 28302 ft | 460 kts | 246° |
| 2026-05-06 17:06 | -14.87994 | 39.77185 | 28917 ft | 461 kts | 245° |
| 2026-05-06 17:06 | -14.89338 | 39.74163 | 29458 ft | 464 kts | 245° |
| 2026-05-06 17:06 | -14.90682 | 39.71126 | 29976 ft | 466 kts | 245° |
| 2026-05-06 17:06 | -14.92032 | 39.68072 | 30481 ft | 469 kts | 245° |
| 2026-05-06 17:07 | -14.93394 | 39.64995 | 30922 ft | 472 kts | 245° |
| 2026-05-06 17:07 | -14.94756 | 39.61922 | 31549 ft | 470 kts | 245° |
| 2026-05-06 17:07 | -14.96097 | 39.58893 | 32186 ft | 468 kts | 245° |
| 2026-05-06 17:07 | -14.97444 | 39.55844 | 32817 ft | 466 kts | 246° |
| 2026-05-06 17:08 | -14.98789 | 39.52798 | 33396 ft | 464 kts | 246° |
| 2026-05-06 17:08 | -15.00130 | 39.49768 | 33966 ft | 463 kts | 246° |
| 2026-05-06 17:08 | -15.01466 | 39.46746 | 34581 ft | 461 kts | 246° |
| 2026-05-06 17:08 | -15.02788 | 39.43749 | 35159 ft | 459 kts | 246° |
| 2026-05-06 17:09 | -15.04118 | 39.40733 | 35697 ft | 459 kts | 246° |
| 2026-05-06 17:09 | -15.05441 | 39.37732 | 36230 ft | 458 kts | 246° |
| 2026-05-06 17:09 | -15.06747 | 39.34773 | 36725 ft | 458 kts | 246° |
| 2026-05-06 17:09 | -15.08069 | 39.31775 | 37223 ft | 458 kts | 246° |
| 2026-05-06 17:10 | -15.09262 | 39.28722 | 37692 ft | 457 kts | 252° |
| 2026-05-06 17:10 | -15.10197 | 39.25575 | 38180 ft | 457 kts | 254° |
| 2026-05-06 17:10 | -15.11093 | 39.22419 | 38693 ft | 457 kts | 254° |
| 2026-05-06 17:10 | -15.12020 | 39.19279 | 39160 ft | 457 kts | 253° |
| 2026-05-06 17:11 | -15.12975 | 39.16141 | 39642 ft | 456 kts | 253° |
| 2026-05-06 17:11 | -15.13894 | 39.13072 | 40021 ft | 441 kts | 253° |
| 2026-05-06 17:11 | -15.14791 | 39.10000 | 40012 ft | 451 kts | 253° |
| 2026-05-06 17:12 | -15.16630 | 39.03783 | 40009 ft | 454 kts | 253° |
| 2026-05-06 17:12 | -15.18479 | 38.97547 | 40010 ft | 453 kts | 253° |
| 2026-05-06 17:13 | -15.21887 | 38.86006 | 40019 ft | 451 kts | 253° |
| 2026-05-06 17:13 | -15.29210 | 38.61132 | 40021 ft | 449 kts | 253° |
| 2026-05-06 17:13 | -15.32176 | 38.48772 | 40011 ft | 449 kts | 266° |
| 2026-05-06 17:14 | -15.33196 | 38.35913 | 40026 ft | 448 kts | 264° |
| 2026-05-06 17:14 | -15.35525 | 38.10358 | 40022 ft | 445 kts | 265° |
| 2026-05-06 17:15 | -15.37863 | 37.84855 | 40026 ft | 443 kts | 265° |
| 2026-05-06 17:15 | -15.40156 | 37.59524 | 40023 ft | 441 kts | 265° |
| 2026-05-06 17:16 | -15.42421 | 37.34167 | 40026 ft | 442 kts | 265° |
| 2026-05-06 17:16 | -15.44647 | 37.08927 | 40044 ft | 443 kts | 265° |
| 2026-05-06 17:17 | -15.46852 | 36.83594 | 40040 ft | 440 kts | 265° |
| 2026-05-06 17:17 | -15.49020 | 36.58340 | 40024 ft | 440 kts | 266° |
| 2026-05-06 17:18 | -15.51160 | 36.33090 | 40024 ft | 438 kts | 266° |
| 2026-05-06 17:18 | -15.53249 | 36.08098 | 40025 ft | 438 kts | 266° |
| 2026-05-06 17:19 | -15.55320 | 35.82971 | 40027 ft | 437 kts | 266° |
| 2026-05-06 17:19 | -15.57360 | 35.57871 | 40026 ft | 437 kts | 266° |
| 2026-05-06 17:20 | -15.59364 | 35.32908 | 39529 ft | 390 kts | 266° |
| 2026-05-06 17:20 | -15.60144 | 35.23035 | 33281 ft | 325 kts | 267° |
| 2026-05-06 17:20 | -15.60875 | 35.13791 | 22686 ft | 299 kts | 267° |
| 2026-05-06 17:20 | -15.61467 | 35.06196 | 15511 ft | 241 kts | 268° |
| 2026-05-06 17:21 | -15.60664 | 34.99196 | 9382 ft | 268 kts | 280° |
| 2026-05-06 17:21 | -15.59982 | 34.93867 | 8104 ft | 236 kts | 278° |
| 2026-05-06 17:21 | -15.59779 | 34.92186 | 7738 ft | 234 kts | 279° |
| 2026-05-06 17:21 | -15.59781 | 34.90539 | 7071 ft | 232 kts | 257° |
| 2026-05-06 17:22 | -15.60622 | 34.89163 | 6431 ft | 219 kts | 228° |
| 2026-05-06 17:22 | -15.61819 | 34.88094 | 6314 ft | 223 kts | 217° |
| 2026-05-06 17:22 | -15.63151 | 34.87270 | 5811 ft | 229 kts | 207° |
| 2026-05-06 17:22 | -15.64658 | 34.86763 | 5026 ft | 231 kts | 187° |
| 2026-05-06 17:23 | -15.66166 | 34.86950 | 4098 ft | 198 kts | 154° |
| 2026-05-06 17:23 | -15.66855 | 34.87866 | 3695 ft | 142 kts | 101° |
| 2026-05-06 17:23 | -15.67063 | 34.88794 | 3434 ft | 128 kts | 98° |
| 2026-05-06 17:23 | -15.67157 | 34.89722 | 3095 ft | 131 kts | 90° |
| 2026-05-06 17:24 | -15.67230 | 34.90634 | 3016 ft | 125 kts | 92° |
| 2026-05-06 17:24 | -15.67314 | 34.91535 | 2930 ft | 126 kts | 92° |
| 2026-05-06 17:24 | -15.67399 | 34.92423 | 2843 ft | 125 kts | 93° |
| 2026-05-06 17:24 | -15.67487 | 34.93325 | 2755 ft | 126 kts | 93° |
| 2026-05-06 17:25 | -15.67576 | 34.94232 | 2676 ft | 127 kts | 93° |
| 2026-05-06 17:25 | -15.67666 | 34.95139 | 2577 ft | 127 kts | 93° |
| 2026-05-06 17:25 | -15.67760 | 34.96047 | 2489 ft | 124 kts | 95° |
| 2026-05-06 17:25 | -15.67845 | 34.96858 | 2516 ft | 114 kts | 95° |
| 2026-05-06 17:26 | -15.67875 | 34.97717 | 2735 ft | 125 kts | 78° |
| 2026-05-06 17:26 | -15.67338 | 34.98359 | 2867 ft | 125 kts | 15° |
| 2026-05-06 17:26 | -15.66504 | 34.98161 | 2891 ft | 128 kts | 325° |
| 2026-05-06 17:26 | -15.66043 | 34.97373 | 2910 ft | 133 kts | 286° |
| 2026-05-06 17:27 | -15.65933 | 34.96441 | 2958 ft | 133 kts | 277° |
| 2026-05-06 17:27 | -15.66184 | 34.95554 | 2844 ft | 136 kts | 225° |
| 2026-05-06 17:27 | -15.67055 | 34.95227 | 2660 ft | 136 kts | 169° |
| 2026-05-06 17:27 | -15.67704 | 34.95832 | 2507 ft | 129 kts | 105° |
| 2026-05-06 17:28 | -15.67820 | 34.96671 | 2500 ft | 103 kts | 95° |
| 2026-05-06 17:28 | -15.67867 | 34.97074 | 2514 ft | 17 kts | 99° |
| 2026-05-06 17:28 | -15.67924 | 34.97134 | 2515 ft | 0 kts | 169° |